sensor_id;sensor_type;location;lat;lon;timestamp;pressure;altitude;pressure_sealevel;temperature;humidity
19236;BME280;9752;54.270;12.470;2023-03-13T00:02:09;100779.19;;;4.36;100.00
19236;BME280;9752;54.270;12.470;2023-03-13T00:07:11;100795.50;;;4.46;100.00
19236;BME280;9752;54.270;12.470;2023-03-13T00:12:13;100798.72;;;4.54;100.00
19236;BME280;9752;54.270;12.470;2023-03-13T00:17:16;100801.16;;;4.53;100.00
19236;BME280;9752;54.270;12.470;2023-03-13T00:22:17;100796.41;;;4.47;100.00
19236;BME280;9752;54.270;12.470;2023-03-13T00:27:19;100800.50;;;4.35;100.00
19236;BME280;9752;54.270;12.470;2023-03-13T00:32:22;100802.66;;;4.30;100.00
19236;BME280;9752;54.270;12.470;2023-03-13T00:37:24;100800.47;;;4.24;100.00
19236;BME280;9752;54.270;12.470;2023-03-13T00:42:28;100799.44;;;4.22;100.00
19236;BME280;9752;54.270;12.470;2023-03-13T00:47:31;100823.72;;;4.26;100.00
19236;BME280;9752;54.270;12.470;2023-03-13T00:52:32;100816.16;;;4.27;100.00
19236;BME280;9752;54.270;12.470;2023-03-13T00:57:34;100834.00;;;4.36;100.00
19236;BME280;9752;54.270;12.470;2023-03-13T01:02:41;100840.44;;;4.41;100.00
19236;BME280;9752;54.270;12.470;2023-03-13T01:07:43;100834.91;;;4.47;100.00
19236;BME280;9752;54.270;12.470;2023-03-13T01:12:45;100844.31;;;4.57;100.00
19236;BME280;9752;54.270;12.470;2023-03-13T01:17:48;100845.97;;;4.56;100.00
19236;BME280;9752;54.270;12.470;2023-03-13T01:22:50;100843.53;;;4.68;100.00
19236;BME280;9752;54.270;12.470;2023-03-13T01:27:52;100829.53;;;4.64;100.00
19236;BME280;9752;54.270;12.470;2023-03-13T01:32:57;100847.53;;;4.64;100.00
19236;BME280;9752;54.270;12.470;2023-03-13T01:37:58;100841.75;;;4.67;100.00
19236;BME280;9752;54.270;12.470;2023-03-13T01:43:16;100825.69;;;4.69;100.00
19236;BME280;9752;54.270;12.470;2023-03-13T01:48:21;100821.72;;;4.73;100.00
19236;BME280;9752;54.270;12.470;2023-03-13T01:53:28;100829.56;;;4.75;100.00
19236;BME280;9752;54.270;12.470;2023-03-13T01:58:31;100835.59;;;4.75;100.00
19236;BME280;9752;54.270;12.470;2023-03-13T02:03:36;100828.00;;;4.77;100.00
19236;BME280;9752;54.270;12.470;2023-03-13T02:08:41;100828.75;;;4.76;100.00
19236;BME280;9752;54.270;12.470;2023-03-13T02:13:45;100818.88;;;4.80;100.00
19236;BME280;9752;54.270;12.470;2023-03-13T02:18:49;100822.31;;;4.91;100.00
19236;BME280;9752;54.270;12.470;2023-03-13T02:23:56;100821.06;;;4.96;100.00
19236;BME280;9752;54.270;12.470;2023-03-13T02:29:00;100820.66;;;5.02;100.00
19236;BME280;9752;54.270;12.470;2023-03-13T02:34:02;100823.59;;;5.06;100.00
19236;BME280;9752;54.270;12.470;2023-03-13T02:39:05;100812.56;;;5.07;100.00
19236;BME280;9752;54.270;12.470;2023-03-13T02:44:10;100807.41;;;5.07;100.00
19236;BME280;9752;54.270;12.470;2023-03-13T02:49:25;100799.16;;;5.12;100.00
19236;BME280;9752;54.270;12.470;2023-03-13T02:54:30;100804.03;;;5.19;100.00
19236;BME280;9752;54.270;12.470;2023-03-13T02:59:35;100790.94;;;5.16;100.00
19236;BME280;9752;54.270;12.470;2023-03-13T03:04:37;100786.06;;;5.19;100.00
19236;BME280;9752;54.270;12.470;2023-03-13T03:09:39;100790.91;;;5.26;100.00
19236;BME280;9752;54.270;12.470;2023-03-13T03:14:47;100793.97;;;5.32;100.00
19236;BME280;9752;54.270;12.470;2023-03-13T03:19:50;100781.59;;;5.38;100.00
19236;BME280;9752;54.270;12.470;2023-03-13T03:24:53;100775.84;;;5.41;100.00
19236;BME280;9752;54.270;12.470;2023-03-13T03:29:59;100782.34;;;5.58;100.00
19236;BME280;9752;54.270;12.470;2023-03-13T03:35:01;100769.09;;;5.53;100.00
19236;BME280;9752;54.270;12.470;2023-03-13T03:40:04;100764.53;;;5.61;100.00
19236;BME280;9752;54.270;12.470;2023-03-13T03:45:09;100759.41;;;5.61;100.00
19236;BME280;9752;54.270;12.470;2023-03-13T03:50:11;100745.78;;;5.62;100.00
19236;BME280;9752;54.270;12.470;2023-03-13T03:55:26;100742.94;;;5.59;100.00
19236;BME280;9752;54.270;12.470;2023-03-13T04:00:31;100724.16;;;5.60;100.00
19236;BME280;9752;54.270;12.470;2023-03-13T04:05:33;100709.03;;;5.53;100.00
19236;BME280;9752;54.270;12.470;2023-03-13T04:10:35;100703.88;;;5.53;100.00
19236;BME280;9752;54.270;12.470;2023-03-13T04:15:39;100695.50;;;5.55;100.00
19236;BME280;9752;54.270;12.470;2023-03-13T04:20:43;100680.72;;;5.53;100.00
19236;BME280;9752;54.270;12.470;2023-03-13T04:25:47;100681.06;;;5.57;100.00
19236;BME280;9752;54.270;12.470;2023-03-13T04:30:50;100670.66;;;5.56;100.00
19236;BME280;9752;54.270;12.470;2023-03-13T04:36:18;100657.78;;;5.56;100.00
19236;BME280;9752;54.270;12.470;2023-03-13T04:41:37;100650.19;;;5.57;100.00
19236;BME280;9752;54.270;12.470;2023-03-13T04:46:46;100638.13;;;5.56;100.00
19236;BME280;9752;54.270;12.470;2023-03-13T04:52:07;100628.31;;;5.62;100.00
19236;BME280;9752;54.270;12.470;2023-03-13T04:57:32;100623.41;;;5.65;100.00
19236;BME280;9752;54.270;12.470;2023-03-13T05:02:47;100610.88;;;5.70;100.00
19236;BME280;9752;54.270;12.470;2023-03-13T05:08:18;100605.31;;;5.76;100.00
19236;BME280;9752;54.270;12.470;2023-03-13T05:13:36;100589.19;;;5.78;100.00
19236;BME280;9752;54.270;12.470;2023-03-13T05:18:54;100568.72;;;5.80;100.00
19236;BME280;9752;54.270;12.470;2023-03-13T05:24:14;100565.72;;;5.85;100.00
19236;BME280;9752;54.270;12.470;2023-03-13T05:29:38;100555.41;;;5.85;100.00
19236;BME280;9752;54.270;12.470;2023-03-13T05:35:05;100546.38;;;5.91;100.00
19236;BME280;9752;54.270;12.470;2023-03-13T05:40:34;100534.63;;;5.94;100.00
19236;BME280;9752;54.270;12.470;2023-03-13T05:45:55;100527.94;;;5.96;100.00
19236;BME280;9752;54.270;12.470;2023-03-13T05:51:09;100512.06;;;6.02;100.00
19236;BME280;9752;54.270;12.470;2023-03-13T05:56:44;100498.38;;;6.03;100.00
19236;BME280;9752;54.270;12.470;2023-03-13T06:02:06;100480.28;;;6.01;100.00
19236;BME280;9752;54.270;12.470;2023-03-13T06:07:16;100471.97;;;6.05;100.00
19236;BME280;9752;54.270;12.470;2023-03-13T06:12:18;100460.75;;;6.05;100.00
19236;BME280;9752;54.270;12.470;2023-03-13T06:17:21;100462.56;;;6.06;100.00
19236;BME280;9752;54.270;12.470;2023-03-13T06:22:26;100454.50;;;6.13;100.00
19236;BME280;9752;54.270;12.470;2023-03-13T06:27:28;100444.88;;;6.22;100.00
19236;BME280;9752;54.270;12.470;2023-03-13T06:32:33;100446.88;;;6.27;100.00
19236;BME280;9752;54.270;12.470;2023-03-13T06:37:36;100431.63;;;6.30;100.00
19236;BME280;9752;54.270;12.470;2023-03-13T06:42:38;100420.22;;;6.38;100.00
19236;BME280;9752;54.270;12.470;2023-03-13T06:47:40;100412.91;;;6.44;100.00
19236;BME280;9752;54.270;12.470;2023-03-13T06:52:45;100404.47;;;6.47;100.00
19236;BME280;9752;54.270;12.470;2023-03-13T06:57:49;100408.50;;;6.55;100.00
19236;BME280;9752;54.270;12.470;2023-03-13T07:02:51;100386.78;;;6.51;100.00
19236;BME280;9752;54.270;12.470;2023-03-13T07:07:56;100373.53;;;6.58;100.00
19236;BME280;9752;54.270;12.470;2023-03-13T07:12:58;100372.97;;;6.62;100.00
19236;BME280;9752;54.270;12.470;2023-03-13T07:18:00;100359.28;;;6.63;100.00
19236;BME280;9752;54.270;12.470;2023-03-13T07:23:03;100340.66;;;6.68;100.00
19236;BME280;9752;54.270;12.470;2023-03-13T07:28:05;100325.63;;;6.74;100.00
19236;BME280;9752;54.270;12.470;2023-03-13T07:33:08;100305.41;;;6.80;100.00
19236;BME280;9752;54.270;12.470;2023-03-13T07:38:12;100286.47;;;6.79;100.00
19236;BME280;9752;54.270;12.470;2023-03-13T07:43:14;100272.13;;;6.83;100.00
19236;BME280;9752;54.270;12.470;2023-03-13T07:48:15;100261.00;;;6.84;100.00
19236;BME280;9752;54.270;12.470;2023-03-13T07:53:22;100256.66;;;6.83;100.00
19236;BME280;9752;54.270;12.470;2023-03-13T07:58:25;100259.03;;;6.93;100.00
19236;BME280;9752;54.270;12.470;2023-03-13T08:03:27;100258.31;;;6.96;100.00
19236;BME280;9752;54.270;12.470;2023-03-13T08:08:31;100245.38;;;7.08;100.00
19236;BME280;9752;54.270;12.470;2023-03-13T08:13:33;100232.47;;;7.08;100.00
19236;BME280;9752;54.270;12.470;2023-03-13T08:18:37;100225.13;;;7.14;100.00
19236;BME280;9752;54.270;12.470;2023-03-13T08:23:41;100219.75;;;7.24;100.00
19236;BME280;9752;54.270;12.470;2023-03-13T08:28:45;100214.97;;;7.30;100.00
19236;BME280;9752;54.270;12.470;2023-03-13T08:33:47;100182.75;;;7.37;100.00
19236;BME280;9752;54.270;12.470;2023-03-13T08:38:52;100187.78;;;7.49;100.00
19236;BME280;9752;54.270;12.470;2023-03-13T08:43:56;100180.59;;;7.58;100.00
19236;BME280;9752;54.270;12.470;2023-03-13T08:48:58;100150.63;;;7.60;100.00
19236;BME280;9752;54.270;12.470;2023-03-13T08:54:07;100155.16;;;7.64;100.00
19236;BME280;9752;54.270;12.470;2023-03-13T08:59:10;100137.41;;;7.69;100.00
19236;BME280;9752;54.270;12.470;2023-03-13T09:04:11;100139.19;;;7.85;100.00
19236;BME280;9752;54.270;12.470;2023-03-13T09:09:16;100116.31;;;7.91;100.00
19236;BME280;9752;54.270;12.470;2023-03-13T09:14:20;100108.06;;;7.96;100.00
19236;BME280;9752;54.270;12.470;2023-03-13T09:19:24;100102.00;;;7.96;100.00
19236;BME280;9752;54.270;12.470;2023-03-13T09:24:27;100094.81;;;8.05;100.00
19236;BME280;9752;54.270;12.470;2023-03-13T09:29:30;100097.06;;;8.14;100.00
19236;BME280;9752;54.270;12.470;2023-03-13T09:34:33;100079.13;;;8.17;100.00
19236;BME280;9752;54.270;12.470;2023-03-13T09:39:36;100076.91;;;8.23;100.00
19236;BME280;9752;54.270;12.470;2023-03-13T09:44:43;100059.44;;;8.34;100.00
19236;BME280;9752;54.270;12.470;2023-03-13T09:49:50;100053.94;;;8.43;100.00
19236;BME280;9752;54.270;12.470;2023-03-13T09:54:58;100048.28;;;8.50;100.00
19236;BME280;9752;54.270;12.470;2023-03-13T10:00:02;100066.53;;;8.68;100.00
19236;BME280;9752;54.270;12.470;2023-03-13T10:05:14;100044.00;;;9.13;100.00
19236;BME280;9752;54.270;12.470;2023-03-13T10:10:24;100033.34;;;9.23;100.00
19236;BME280;9752;54.270;12.470;2023-03-13T10:15:38;100004.06;;;9.41;100.00
19236;BME280;9752;54.270;12.470;2023-03-13T10:20:46;99984.84;;;9.70;100.00
19236;BME280;9752;54.270;12.470;2023-03-13T10:25:49;99986.38;;;9.83;100.00
19236;BME280;9752;54.270;12.470;2023-03-13T10:31:02;99981.31;;;10.38;100.00
19236;BME280;9752;54.270;12.470;2023-03-13T10:36:10;99958.25;;;10.44;100.00
19236;BME280;9752;54.270;12.470;2023-03-13T10:41:25;99948.16;;;10.68;100.00
19236;BME280;9752;54.270;12.470;2023-03-13T10:46:30;99933.06;;;10.79;100.00
19236;BME280;9752;54.270;12.470;2023-03-13T10:51:36;99918.75;;;10.87;100.00
19236;BME280;9752;54.270;12.470;2023-03-13T10:56:42;99897.66;;;10.80;100.00
19236;BME280;9752;54.270;12.470;2023-03-13T11:01:45;99879.97;;;10.71;100.00
19236;BME280;9752;54.270;12.470;2023-03-13T11:06:50;99858.25;;;10.88;100.00
19236;BME280;9752;54.270;12.470;2023-03-13T11:12:01;99844.06;;;10.80;100.00
19236;BME280;9752;54.270;12.470;2023-03-13T11:17:10;99826.44;;;10.73;100.00
19236;BME280;9752;54.270;12.470;2023-03-13T11:22:26;99831.22;;;10.83;100.00
19236;BME280;9752;54.270;12.470;2023-03-13T11:27:35;99827.66;;;10.81;100.00
19236;BME280;9752;54.270;12.470;2023-03-13T11:32:43;99818.41;;;10.67;100.00
19236;BME280;9752;54.270;12.470;2023-03-13T11:37:50;99819.03;;;11.02;100.00
19236;BME280;9752;54.270;12.470;2023-03-13T11:43:21;99817.81;;;10.93;100.00
19236;BME280;9752;54.270;12.470;2023-03-13T11:48:42;99829.41;;;11.02;100.00
19236;BME280;9752;54.270;12.470;2023-03-13T11:54:34;99836.06;;;11.79;100.00
19236;BME280;9752;54.270;12.470;2023-03-13T11:59:46;99825.59;;;11.78;100.00
19236;BME280;9752;54.270;12.470;2023-03-13T12:04:53;99816.31;;;12.28;100.00
19236;BME280;9752;54.270;12.470;2023-03-13T12:10:00;99779.47;;;12.40;100.00
19236;BME280;9752;54.270;12.470;2023-03-13T12:15:15;99759.47;;;13.14;100.00
19236;BME280;9752;54.270;12.470;2023-03-13T12:20:22;99719.13;;;13.54;100.00
19236;BME280;9752;54.270;12.470;2023-03-13T12:25:29;99657.03;;;14.00;100.00
19236;BME280;9752;54.270;12.470;2023-03-13T12:30:39;99600.09;;;13.52;100.00
19236;BME280;9752;54.270;12.470;2023-03-13T12:35:48;99546.25;;;13.52;100.00
19236;BME280;9752;54.270;12.470;2023-03-13T12:41:00;99502.72;;;13.80;100.00
19236;BME280;9752;54.270;12.470;2023-03-13T12:46:26;99453.44;;;13.89;100.00
19236;BME280;9752;54.270;12.470;2023-03-13T12:51:50;99391.34;;;14.09;100.00
19236;BME280;9752;54.270;12.470;2023-03-13T12:57:08;99346.09;;;14.47;100.00
19236;BME280;9752;54.270;12.470;2023-03-13T13:02:20;99283.63;;;14.54;100.00
19236;BME280;9752;54.270;12.470;2023-03-13T13:07:25;99212.00;;;14.82;100.00
19236;BME280;9752;54.270;12.470;2023-03-13T13:12:30;99189.88;;;14.62;100.00
19236;BME280;9752;54.270;12.470;2023-03-13T13:23:26;99120.78;;;14.92;100.00
19236;BME280;9752;54.270;12.470;2023-03-13T13:28:34;99085.09;;;14.89;100.00
19236;BME280;9752;54.270;12.470;2023-03-13T13:33:37;99051.16;;;14.92;100.00
19236;BME280;9752;54.270;12.470;2023-03-13T13:38:41;99049.75;;;15.14;100.00
19236;BME280;9752;54.270;12.470;2023-03-13T13:43:45;99041.72;;;15.02;100.00
19236;BME280;9752;54.270;12.470;2023-03-13T13:49:05;99028.84;;;15.13;100.00
19236;BME280;9752;54.270;12.470;2023-03-13T13:54:51;99028.78;;;15.10;100.00
19236;BME280;9752;54.270;12.470;2023-03-13T13:59:59;99026.53;;;15.37;100.00
19236;BME280;9752;54.270;12.470;2023-03-13T14:05:15;99014.72;;;15.72;100.00
19236;BME280;9752;54.270;12.470;2023-03-13T14:10:29;99023.34;;;15.65;100.00
19236;BME280;9752;54.270;12.470;2023-03-13T14:15:33;99022.63;;;15.03;100.00
19236;BME280;9752;54.270;12.470;2023-03-13T14:20:50;99027.81;;;15.72;100.00
19236;BME280;9752;54.270;12.470;2023-03-13T14:25:54;99022.72;;;15.11;100.00
19236;BME280;9752;54.270;12.470;2023-03-13T14:30:57;99014.94;;;15.15;100.00
19236;BME280;9752;54.270;12.470;2023-03-13T14:36:00;99018.81;;;14.81;100.00
19236;BME280;9752;54.270;12.470;2023-03-13T14:41:03;99009.69;;;15.15;100.00
19236;BME280;9752;54.270;12.470;2023-03-13T14:46:13;99005.44;;;15.20;100.00
19236;BME280;9752;54.270;12.470;2023-03-13T14:51:19;98997.09;;;14.82;100.00
19236;BME280;9752;54.270;12.470;2023-03-13T14:56:33;98998.00;;;15.54;100.00
19236;BME280;9752;54.270;12.470;2023-03-13T15:01:36;99001.28;;;15.38;100.00
19236;BME280;9752;54.270;12.470;2023-03-13T15:06:39;98992.59;;;15.39;100.00
19236;BME280;9752;54.270;12.470;2023-03-13T15:11:52;98979.34;;;15.22;100.00
19236;BME280;9752;54.270;12.470;2023-03-13T15:16:55;98976.84;;;15.33;100.00
19236;BME280;9752;54.270;12.470;2023-03-13T15:21:57;98964.28;;;16.91;100.00
19236;BME280;9752;54.270;12.470;2023-03-13T15:27:01;98951.75;;;15.47;100.00
19236;BME280;9752;54.270;12.470;2023-03-13T15:32:03;98952.88;;;14.94;100.00
19236;BME280;9752;54.270;12.470;2023-03-13T15:37:09;98945.31;;;16.00;100.00
19236;BME280;9752;54.270;12.470;2023-03-13T15:42:14;98930.47;;;17.62;100.00
19236;BME280;9752;54.270;12.470;2023-03-13T15:47:18;98913.03;;;17.90;100.00
19236;BME280;9752;54.270;12.470;2023-03-13T15:52:20;98905.19;;;17.88;100.00
19236;BME280;9752;54.270;12.470;2023-03-13T15:57:25;98905.09;;;17.54;100.00
19236;BME280;9752;54.270;12.470;2023-03-13T16:02:26;98877.16;;;17.63;100.00
19236;BME280;9752;54.270;12.470;2023-03-13T16:07:28;98884.09;;;17.30;100.00
19236;BME280;9752;54.270;12.470;2023-03-13T16:12:33;98887.38;;;16.73;100.00
19236;BME280;9752;54.270;12.470;2023-03-13T16:17:35;98890.72;;;16.48;100.00
19236;BME280;9752;54.270;12.470;2023-03-13T16:22:37;98897.06;;;15.69;100.00
19236;BME280;9752;54.270;12.470;2023-03-13T16:27:41;98897.31;;;14.40;100.00
19236;BME280;9752;54.270;12.470;2023-03-13T16:32:43;98893.00;;;13.86;100.00
19236;BME280;9752;54.270;12.470;2023-03-13T16:37:45;98886.75;;;14.31;100.00
19236;BME280;9752;54.270;12.470;2023-03-13T16:42:50;98895.66;;;13.89;100.00
19236;BME280;9752;54.270;12.470;2023-03-13T16:47:52;98885.66;;;13.60;100.00
19236;BME280;9752;54.270;12.470;2023-03-13T16:52:54;98888.66;;;13.35;100.00
19236;BME280;9752;54.270;12.470;2023-03-13T16:57:57;98877.38;;;13.34;100.00
19236;BME280;9752;54.270;12.470;2023-03-13T17:03:00;98876.03;;;13.12;100.00
19236;BME280;9752;54.270;12.470;2023-03-13T17:08:02;98873.53;;;12.71;100.00
19236;BME280;9752;54.270;12.470;2023-03-13T17:13:05;98861.25;;;12.24;100.00
19236;BME280;9752;54.270;12.470;2023-03-13T17:18:08;98848.91;;;12.14;100.00
19236;BME280;9752;54.270;12.470;2023-03-13T17:23:10;98854.53;;;11.96;100.00
19236;BME280;9752;54.270;12.470;2023-03-13T17:28:15;98856.72;;;12.16;100.00
19236;BME280;9752;54.270;12.470;2023-03-13T17:33:18;98857.13;;;12.34;100.00
19236;BME280;9752;54.270;12.470;2023-03-13T17:38:20;98865.09;;;12.42;100.00
19236;BME280;9752;54.270;12.470;2023-03-13T17:43:24;98849.91;;;12.21;100.00
19236;BME280;9752;54.270;12.470;2023-03-13T17:48:27;98853.63;;;12.32;100.00
19236;BME280;9752;54.270;12.470;2023-03-13T17:53:29;98857.53;;;12.53;100.00
19236;BME280;9752;54.270;12.470;2023-03-13T17:58:33;98837.09;;;12.71;100.00
19236;BME280;9752;54.270;12.470;2023-03-13T18:03:34;98841.56;;;12.77;100.00
19236;BME280;9752;54.270;12.470;2023-03-13T18:08:38;98833.75;;;12.78;100.00
19236;BME280;9752;54.270;12.470;2023-03-13T18:13:42;98841.84;;;12.92;100.00
19236;BME280;9752;54.270;12.470;2023-03-13T18:18:43;98849.75;;;12.98;100.00
19236;BME280;9752;54.270;12.470;2023-03-13T18:23:45;98841.34;;;13.12;100.00
19236;BME280;9752;54.270;12.470;2023-03-13T18:28:49;98849.22;;;13.16;100.00
19236;BME280;9752;54.270;12.470;2023-03-13T18:34:03;98842.16;;;13.11;100.00
19236;BME280;9752;54.270;12.470;2023-03-13T18:39:06;98860.53;;;13.18;100.00
19236;BME280;9752;54.270;12.470;2023-03-13T18:44:09;98850.16;;;13.20;100.00
19236;BME280;9752;54.270;12.470;2023-03-13T18:49:16;98858.22;;;12.86;100.00
19236;BME280;9752;54.270;12.470;2023-03-13T18:54:20;98854.53;;;12.75;100.00
19236;BME280;9752;54.270;12.470;2023-03-13T18:59:24;98846.66;;;12.72;100.00
19236;BME280;9752;54.270;12.470;2023-03-13T19:04:30;98844.31;;;12.84;100.00
19236;BME280;9752;54.270;12.470;2023-03-13T19:09:32;98836.03;;;13.07;100.00
19236;BME280;9752;54.270;12.470;2023-03-13T19:14:35;98825.53;;;13.02;100.00
19236;BME280;9752;54.270;12.470;2023-03-13T19:19:36;98834.88;;;12.91;100.00
19236;BME280;9752;54.270;12.470;2023-03-13T19:24:40;98835.63;;;12.85;100.00
19236;BME280;9752;54.270;12.470;2023-03-13T19:29:44;98839.25;;;12.94;100.00
19236;BME280;9752;54.270;12.470;2023-03-13T19:34:46;98828.91;;;12.97;100.00
19236;BME280;9752;54.270;12.470;2023-03-13T19:39:48;98836.66;;;12.94;100.00
19236;BME280;9752;54.270;12.470;2023-03-13T19:44:59;98835.25;;;13.13;100.00
19236;BME280;9752;54.270;12.470;2023-03-13T19:50:01;98880.69;;;13.28;100.00
19236;BME280;9752;54.270;12.470;2023-03-13T19:55:04;98911.78;;;12.78;100.00
19236;BME280;9752;54.270;12.470;2023-03-13T20:00:12;98932.34;;;10.94;100.00
19236;BME280;9752;54.270;12.470;2023-03-13T20:05:17;98940.16;;;10.37;100.00
19236;BME280;9752;54.270;12.470;2023-03-13T20:10:20;98939.88;;;10.29;100.00
19236;BME280;9752;54.270;12.470;2023-03-13T20:15:42;98941.94;;;10.38;100.00
19236;BME280;9752;54.270;12.470;2023-03-13T20:20:44;98962.09;;;10.48;100.00
19236;BME280;9752;54.270;12.470;2023-03-13T20:25:46;98967.06;;;10.69;100.00
19236;BME280;9752;54.270;12.470;2023-03-13T20:30:52;98970.56;;;10.70;100.00
19236;BME280;9752;54.270;12.470;2023-03-13T20:35:57;98948.28;;;10.21;100.00
19236;BME280;9752;54.270;12.470;2023-03-13T20:41:00;98954.31;;;9.68;100.00
19236;BME280;9752;54.270;12.470;2023-03-13T20:46:05;98958.19;;;9.55;100.00
19236;BME280;9752;54.270;12.470;2023-03-13T20:51:07;98963.63;;;9.63;100.00
19236;BME280;9752;54.270;12.470;2023-03-13T20:56:10;98968.47;;;9.54;100.00
19236;BME280;9752;54.270;12.470;2023-03-13T21:01:13;98970.03;;;9.49;100.00
19236;BME280;9752;54.270;12.470;2023-03-13T21:06:17;98955.34;;;9.48;100.00
19236;BME280;9752;54.270;12.470;2023-03-13T21:11:21;98983.75;;;9.46;100.00
19236;BME280;9752;54.270;12.470;2023-03-13T21:16:24;99089.88;;;9.70;100.00
19236;BME280;9752;54.270;12.470;2023-03-13T21:21:27;99091.34;;;9.88;100.00
19236;BME280;9752;54.270;12.470;2023-03-13T21:26:31;99076.06;;;9.95;100.00
19236;BME280;9752;54.270;12.470;2023-03-13T21:31:34;99059.38;;;10.13;100.00
19236;BME280;9752;54.270;12.470;2023-03-13T21:36:36;99067.44;;;10.21;100.00
19236;BME280;9752;54.270;12.470;2023-03-13T21:41:37;99054.53;;;10.22;100.00
19236;BME280;9752;54.270;12.470;2023-03-13T21:46:40;99052.28;;;10.31;100.00
19236;BME280;9752;54.270;12.470;2023-03-13T21:51:42;99046.66;;;10.19;100.00
19236;BME280;9752;54.270;12.470;2023-03-13T21:56:44;99068.16;;;9.91;100.00
19236;BME280;9752;54.270;12.470;2023-03-13T22:01:48;99068.22;;;9.68;100.00
19236;BME280;9752;54.270;12.470;2023-03-13T22:06:53;99054.97;;;9.36;100.00
19236;BME280;9752;54.270;12.470;2023-03-13T22:11:55;99067.00;;;9.12;100.00
19236;BME280;9752;54.270;12.470;2023-03-13T22:16:58;99084.72;;;9.01;100.00
19236;BME280;9752;54.270;12.470;2023-03-13T22:22:00;99091.91;;;8.87;100.00
19236;BME280;9752;54.270;12.470;2023-03-13T22:27:02;99110.44;;;8.98;100.00
19236;BME280;9752;54.270;12.470;2023-03-13T22:32:07;99124.94;;;8.94;100.00
19236;BME280;9752;54.270;12.470;2023-03-13T22:37:09;99116.25;;;8.92;100.00
19236;BME280;9752;54.270;12.470;2023-03-13T22:42:11;99124.84;;;9.36;100.00
19236;BME280;9752;54.270;12.470;2023-03-13T22:47:14;99094.56;;;9.34;100.00
19236;BME280;9752;54.270;12.470;2023-03-13T22:52:18;99079.94;;;9.12;100.00
19236;BME280;9752;54.270;12.470;2023-03-13T22:57:28;99048.50;;;9.01;100.00
19236;BME280;9752;54.270;12.470;2023-03-13T23:02:31;99036.38;;;9.00;100.00
19236;BME280;9752;54.270;12.470;2023-03-13T23:07:35;99023.31;;;8.95;100.00
19236;BME280;9752;54.270;12.470;2023-03-13T23:12:40;99024.03;;;8.93;100.00
19236;BME280;9752;54.270;12.470;2023-03-13T23:17:44;99015.22;;;8.88;100.00
19236;BME280;9752;54.270;12.470;2023-03-13T23:22:47;99018.56;;;8.63;100.00
19236;BME280;9752;54.270;12.470;2023-03-13T23:27:49;99023.38;;;8.32;100.00
19236;BME280;9752;54.270;12.470;2023-03-13T23:32:53;99015.88;;;8.17;100.00
19236;BME280;9752;54.270;12.470;2023-03-13T23:37:54;99019.47;;;8.00;100.00
19236;BME280;9752;54.270;12.470;2023-03-13T23:42:57;99032.44;;;8.23;100.00
19236;BME280;9752;54.270;12.470;2023-03-13T23:48:01;99029.28;;;8.30;100.00
19236;BME280;9752;54.270;12.470;2023-03-13T23:53:03;99037.88;;;8.50;100.00
19236;BME280;9752;54.270;12.470;2023-03-13T23:58:05;99045.44;;;8.45;100.00
